Middle Point, Ohio
Current Conditions -  °F | °C
As of 9:53 PM on Monday 26 Jan 2015 (Local Time) from KAOH Reporting Station
Haze Haze  
Wind Chill:   Ceiling: Unl
Heat Index:   Visibility: 4mi
Dew Point:   Wind: 3mph
Humidity: 80%   Direction: 180°S
Pressure: 29.95"   Gusts: NA
Location:  40.86°N, 84.45°W
Report Text: KAOH 270253Z AUTO 18003KT 4SM HZ CLR M13/M16 A2995 RMK AO2 SLP161 I1000 I3000 T11331161 53009
Loading
Personal Weather Stations






























Interactive Weather Map New forecast layout! Learn more

10-Day Weather Forecast

Advertisements
Track Severe Weather on mobile